1896 Cyclonic Storm NOT_NAMED (1896257N20090)


IBTrACS version v04r00. Visit IBTrACS website for data access.
Please direct all questions to the IBTrACS Q and A forum

Storm track - Intensity - Wind Radii - Intensity Data - Source Data - All data

Summary Information

Storm ID 1896257N20090
Start Sep 13 00Z
Landfall Sep 15 12Z
Max Intensity 45 kt (Sep 13 12Z)
End Sep 19 03Z
ATCF IDs
Track status Best track data.

Storm track plot

Map of storm track

Intensity plots

Map of storm track

Radial wind information

No radial wind information for this storm


Position and Intensity Table

BASIN ISO_TIME_________ NATURE LAT LON DS824 WIND
degrees north degrees east kts
NI 1896-09-13 00:00:00 TS 19.90 90.00 34
NI 03:00:00 TS 19.90 89.90 36
NI 06:00:00 TS 19.90 89.76 39
NI 09:00:00 TS 19.89 89.62 42
NI 12:00:00 TS 19.89 89.48 45
NI 15:00:00 TS 19.92 89.33 45
NI 18:00:00 TS 19.97 89.17 45
NI 21:00:00 TS 20.02 89.01 45
NI 1896-09-14 00:00:00 TS 20.07 88.86 45
NI 03:00:00 TS 20.12 88.74 45
NI 06:00:00 TS 20.17 88.65 45
NI 09:00:00 TS 20.22 88.59 45
NI 12:00:00 TS 20.27 88.53 45
NI 15:00:00 TS 20.33 88.45 45
NI 18:00:00 TS 20.35 88.37 45
NI 21:00:00 TS 20.36 88.30 45
NI 1896-09-15 00:00:00 TS 20.43 88.18 45
NI 03:00:00 TS 20.62 87.94 41
NI 06:00:00 TS 20.94 87.61 37
NI 09:00:00 TS 21.32 87.30 33
NI 12:00:00 TS 21.71 87.03 30
NI 15:00:00 TS 22.03 86.83 30
NI 18:00:00 TS 22.31 86.73 30
NI 21:00:00 TS 22.62 86.65 30
NI 1896-09-16 00:00:00 TS 22.89 86.61 30
NI 03:00:00 TS 23.07 86.57 30
NI 06:00:00 TS 23.18 86.53 30
NI 09:00:00 TS 23.28 86.51 30
NI 12:00:00 TS 23.37 86.50 30
NI 15:00:00 TS 23.45 86.50 30
NI 18:00:00 TS 23.53 86.50 30
NI 21:00:00 TS 23.59 86.53 30
NI 1896-09-17 00:00:00 TS 23.65 86.58 30
NI 03:00:00 TS 23.77 86.62 30
NI 06:00:00 TS 23.92 86.67 30
NI 09:00:00 TS 24.08 86.74 30
NI 12:00:00 TS 24.23 86.84 30
NI 15:00:00 TS 24.36 86.97 30
NI 18:00:00 TS 24.45 87.13 30
NI 21:00:00 TS 24.52 87.32 30
NI 1896-09-18 00:00:00 TS 24.57 87.52 30
NI 03:00:00 TS 24.62 87.66 30
NI 06:00:00 TS 24.68 87.76 30
NI 09:00:00 TS 24.72 87.85 30
NI 12:00:00 TS 24.77 87.95 30
NI 15:00:00 TS 24.82 88.08 30
NI 18:00:00 TS 24.88 88.19 30
NI 21:00:00 TS 24.96 88.30 30
NI 1896-09-19 00:00:00 TS 25.04 88.41 30
NI 03:00:00 NR 25.10 88.50

Source Information

Agency Information
USA
TOKYO
CMA
HKO
NEWDELHI
REUNION
BOM
NADI
WELLINGTON
DS824 n_ind.dat:224:NOT NAMED
TD9636 cons_worldwide_trop_cyclone_18710101-19891231-004:Line=2246
TD9635
NEUMANN
MLC

All available IBTrACS Data

SEASON BASIN SUBBASIN ISO_TIME_________ NATURE LAT LON DIST2LAND LANDFALL IFLAG USA SSHS DS824 LAT DS824 LON DS824 STAGE DS824 WIND TD9636 LAT TD9636 LON TD9636 STAGE STORM SPEED STORM DIR
Year degrees north degrees east km km 1 degrees north degrees east kts degrees north degrees east kts degrees
1896 NI BB 1896-09-13 00:00:00 TS 19.90 90.00 210 207 _________O____ -1 19.90 90.00 TC 34 2 271
1896 NI BB 03:00:00 TS 19.90 89.90 207 203 _________PO___ -1 19.90 89.85 TC 36 19.90 90.00 2 2 269
1896 NI BB 06:00:00 TS 19.90 89.76 203 197 _________OP___ -1 19.90 89.70 TC 39 19.89 89.85 2 3 267
1896 NI BB 09:00:00 TS 19.89 89.62 197 194 _________PP___ -1 19.89 89.55 TC 42 19.88 89.71 2 3 269
1896 NI BB 12:00:00 TS 19.89 89.48 194 191 _________OP___ -1 19.90 89.40 TC 45 19.88 89.56 2 3 277
1896 NI BB 15:00:00 TS 19.92 89.33 191 179 _________PO___ -1 19.94 89.25 TC 45 19.90 89.40 3 3 285
1896 NI BB 18:00:00 TS 19.97 89.17 179 178 _________OP___ -1 20.00 89.10 TC 45 19.94 89.24 3 3 288
1896 NI BB 21:00:00 TS 20.02 89.01 178 167 _________PP___ -1 20.05 88.94 TC 45 19.99 89.08 3 3 290
1896 NI BB 1896-09-14 00:00:00 TS 20.07 88.86 167 167 _________OP___ -1 20.10 88.80 TC 45 20.04 88.93 3 3 293
1896 NI BB 03:00:00 TS 20.12 88.74 169 157 _________PO___ -1 20.15 88.68 TC 45 20.10 88.80 3 2 298
1896 NI BB 06:00:00 TS 20.17 88.65 157 156 _________OP___ -1 20.20 88.60 TC 45 20.15 88.71 3 2 305
1896 NI BB 09:00:00 TS 20.22 88.59 156 145 _________PP___ -1 20.25 88.55 TC 45 20.20 88.63 3 2 312
1896 NI BB 12:00:00 TS 20.27 88.53 145 145 _________OP___ -1 20.30 88.50 TC 45 20.25 88.57 3 2 308
1896 NI BB 15:00:00 TS 20.33 88.45 145 145 _________PO___ -1 20.35 88.41 TC 45 20.30 88.50 3 2 296
1896 NI BB 18:00:00 TS 20.35 88.37 134 134 _________OP___ -1 20.40 88.30 TC 45 20.30 88.44 3 1 284
1896 NI BB 21:00:00 TS 20.36 88.30 134 129 _________PP___ -1 20.41 88.24 TC 45 20.31 88.37 3 2 295
1896 NI BB 1896-09-15 00:00:00 TS 20.43 88.18 129 104 _________OP___ -1 20.50 88.10 TC 45 20.36 88.26 3 4 308
1896 NI BB 03:00:00 TS 20.62 87.94 94 63 _________PO___ -1 20.75 87.77 TC 41 20.50 88.10 3 7 314
1896 NI BB 06:00:00 TS 20.94 87.61 63 30 _________OP___ -1 21.10 87.40 TC 37 20.78 87.82 3 9 320
1896 NI BB 09:00:00 TS 21.32 87.30 30 0 _________PP___ -1 21.51 87.11 TC 33 21.13 87.49 3 9 325
1896 NI BB 12:00:00 TS 21.71 87.03 0 0 _________OP___ -1 21.90 86.90 TC 30 21.52 87.17 3 8 329
1896 NI BB 15:00:00 TS 22.03 86.83 0 0 _________PO___ -1 22.16 86.77 TC 30 21.90 86.90 1 7 335
1896 NI BB 18:00:00 TS 22.31 86.73 0 0 _________OP___ -1 22.40 86.70 TC 30 22.22 86.75 1 6 344
1896 NI BB 21:00:00 TS 22.62 86.65 0 0 _________PP___ -1 22.72 86.64 TC 30 22.52 86.67 1 6 350
1896 NI BB 1896-09-16 00:00:00 TS 22.89 86.61 0 0 _________OP___ -1 23.00 86.60 TC 30 22.79 86.62 1 5 350
1896 NI BB 03:00:00 TS 23.07 86.57 0 0 _________PO___ -1 23.13 86.54 TC 30 23.00 86.60 1 3 345
1896 NI BB 06:00:00 TS 23.18 86.53 0 0 _________OP___ -1 23.20 86.50 TC 30 23.15 86.55 1 2 344
1896 NI BB 09:00:00 TS 23.28 86.51 0 0 _________PP___ -1 23.30 86.49 TC 30 23.26 86.52 1 2 0
1896 NI BB 12:00:00 TS 23.37 86.50 0 0 _________OP___ -1 23.40 86.50 TC 30 23.34 86.50 1 2 0
1896 NI BB 15:00:00 TS 23.45 86.50 0 0 _________PO___ -1 23.51 86.49 TC 30 23.40 86.50 1 2 5
1896 NI BB 18:00:00 TS 23.53 86.50 0 0 _________OP___ -1 23.60 86.50 TC 30 23.47 86.50 1 1 19
1896 NI BB 21:00:00 TS 23.59 86.53 0 0 _________PP___ -1 23.64 86.54 TC 30 23.53 86.52 1 1 30
1896 NI BB 1896-09-17 00:00:00 TS 23.65 86.58 0 0 _________OP___ -1 23.70 86.60 TC 30 23.61 86.55 1 2 23
1896 NI BB 03:00:00 TS 23.77 86.62 0 0 _________PO___ -1 23.83 86.64 TC 30 23.70 86.60 1 3 18
1896 NI BB 06:00:00 TS 23.92 86.67 0 0 _________OP___ -1 24.00 86.70 TC 30 23.84 86.64 1 3 20
1896 NI BB 09:00:00 TS 24.08 86.74 0 0 _________PP___ -1 24.16 86.78 TC 30 24.00 86.70 1 3 27
1896 NI BB 12:00:00 TS 24.23 86.84 0 0 _________OP___ -1 24.30 86.90 TC 30 24.16 86.79 1 3 36
1896 NI BB 15:00:00 TS 24.36 86.97 0 0 _________PO___ -1 24.41 87.04 TC 30 24.30 86.90 1 3 50
1896 NI BB 18:00:00 TS 24.45 87.13 0 0 _________OP___ -1 24.50 87.20 TC 30 24.40 87.06 1 4 64
1896 NI BB 21:00:00 TS 24.52 87.32 0 0 _________PP___ -1 24.56 87.41 TC 30 24.48 87.24 1 4 71
1896 NI BB 1896-09-18 00:00:00 TS 24.57 87.52 0 0 _________OP___ -1 24.60 87.60 TC 30 24.54 87.43 1 3 71
1896 NI BB 03:00:00 TS 24.62 87.66 0 0 _________PO___ -1 24.65 87.72 TC 30 24.60 87.60 1 2 65
1896 NI BB 06:00:00 TS 24.68 87.76 0 0 _________OP___ -1 24.70 87.80 TC 30 24.65 87.72 1 2 60
1896 NI BB 09:00:00 TS 24.72 87.85 0 0 _________PP___ -1 24.75 87.89 TC 30 24.70 87.82 1 2 61
1896 NI BB 12:00:00 TS 24.77 87.95 0 0 _________OP___ -1 24.80 88.00 TC 30 24.75 87.91 1 2 64
1896 NI BB 15:00:00 TS 24.82 88.08 0 0 _________PO___ -1 24.84 88.15 TC 30 24.80 88.00 1 2 64
1896 NI BB 18:00:00 TS 24.88 88.19 0 0 _________OP___ -1 24.90 88.30 TC 30 24.86 88.11 1 2 57
1896 NI BB 21:00:00 TS 24.96 88.30 0 0 _________PP___ -1 24.99 88.41 TC 30 24.94 88.23 1 3 50
1896 NI BB 1896-09-19 00:00:00 TS 25.04 88.41 0 0 _________OP___ -1 25.10 88.50 TC 30 25.02 88.36 1 2 52
1896 NI BB 03:00:00 NR 25.10 88.50 0 __________O___ -1 TC 25.10 88.50 1 2 55